createdAt,value
2023-05-09T00:00:06.576Z,101131.70
2023-05-09T00:01:13.256Z,101131.89
2023-05-09T00:02:16.005Z,101131.20
2023-05-09T00:03:18.338Z,101139.38
2023-05-09T00:04:20.636Z,101128.91
2023-05-09T00:05:23.399Z,101126.43
2023-05-09T00:06:26.392Z,101125.64
2023-05-09T00:07:29.375Z,101127.47
2023-05-09T00:08:31.692Z,101136.39
2023-05-09T00:09:33.781Z,101129.45
2023-05-09T00:10:36.927Z,101125.00
2023-05-09T00:11:39.442Z,101131.08
2023-05-09T00:12:41.595Z,101122.23
2023-05-09T00:13:44.278Z,101128.48
2023-05-09T00:14:46.972Z,101133.05
2023-05-09T00:15:49.858Z,101127.84
2023-05-09T00:16:52.241Z,101131.55
2023-05-09T00:17:54.489Z,101130.68
2023-05-09T00:18:57.024Z,101126.22
2023-05-09T00:19:59.491Z,101127.91
2023-05-09T00:21:02.300Z,101132.37
2023-05-09T00:22:05.578Z,101123.56
2023-05-09T00:23:07.812Z,101125.25
2023-05-09T00:24:09.991Z,101128.70
2023-05-09T00:25:12.666Z,101131.15
2023-05-09T00:26:15.885Z,101127.66
2023-05-09T00:27:19.243Z,101125.00
2023-05-09T00:28:21.323Z,101129.45
2023-05-09T00:30:39.407Z,101122.65
2023-05-09T00:31:41.312Z,101126.88
2023-05-09T00:32:43.523Z,101127.66
2023-05-09T00:33:45.857Z,101129.45
2023-05-09T00:34:48.552Z,101126.80
2023-05-09T00:35:50.928Z,101129.53
2023-05-09T00:36:53.561Z,101134.02
2023-05-09T00:37:55.662Z,101127.91
2023-05-09T00:38:57.713Z,101136.75
2023-05-09T00:40:00.220Z,101136.00
2023-05-09T00:41:02.411Z,101132.66
2023-05-09T00:42:04.841Z,101129.14
2023-05-09T00:43:07.121Z,101138.16
2023-05-09T00:44:09.201Z,101133.80
2023-05-09T00:45:11.569Z,101133.02
2023-05-09T00:46:14.973Z,101138.34
2023-05-09T00:47:18.084Z,101123.42
2023-05-09T00:48:21.100Z,101135.02
2023-05-09T00:49:23.868Z,101129.89
2023-05-09T00:50:26.396Z,101128.92
2023-05-09T00:51:28.754Z,101128.09
2023-05-09T00:52:33.006Z,101125.22
2023-05-09T00:53:35.930Z,101128.66
2023-05-09T00:54:38.390Z,101127.80
2023-05-09T00:55:41.071Z,101127.80
2023-05-09T00:56:43.885Z,101123.34
2023-05-09T00:57:46.070Z,101130.28
2023-05-09T00:58:48.717Z,101129.31
2023-05-09T00:59:50.938Z,101131.15
2023-05-09T01:00:53.410Z,101129.70
2023-05-09T01:01:55.707Z,101127.12
2023-05-09T01:02:58.691Z,101133.48
2023-05-09T01:04:00.943Z,101137.18
2023-05-09T01:05:03.302Z,101136.31
2023-05-09T01:07:34.912Z,101129.42
2023-05-09T01:08:43.738Z,101128.52
2023-05-09T01:10:06.471Z,101135.67
2023-05-09T01:11:15.105Z,101130.42
2023-05-09T01:13:49.710Z,101128.92
2023-05-09T01:15:01.360Z,101128.63
2023-05-09T01:16:07.942Z,101132.04
2023-05-09T01:22:40.895Z,101133.80
2023-05-09T01:24:15.928Z,101133.77
2023-05-09T01:27:30.908Z,101128.73
2023-05-09T01:30:27.224Z,101127.80
2023-05-09T01:31:30.971Z,101129.55
2023-05-09T01:32:35.411Z,101124.41
2023-05-09T01:33:39.930Z,101127.17
2023-05-09T01:34:43.774Z,101129.91
2023-05-09T01:35:49.574Z,101135.23
2023-05-09T01:36:59.877Z,101123.83
2023-05-09T01:38:05.785Z,101131.91
2023-05-09T01:39:13.255Z,101130.36
2023-05-09T01:40:17.707Z,101126.09
2023-05-09T01:41:21.609Z,101131.41
2023-05-09T01:42:26.173Z,101127.88
2023-05-09T01:43:29.829Z,101129.71
2023-05-09T01:44:35.536Z,101135.09
2023-05-09T01:45:38.981Z,101132.27
2023-05-09T01:46:42.839Z,101133.30
2023-05-09T01:47:47.900Z,101128.05
2023-05-09T01:48:50.437Z,101134.41
2023-05-09T01:49:54.500Z,101124.74
2023-05-09T01:51:00.050Z,101132.72
2023-05-09T01:52:11.820Z,101128.05
2023-05-09T01:53:16.120Z,101131.58
2023-05-09T01:54:18.751Z,101123.70
2023-05-09T01:55:25.994Z,101129.95
2023-05-09T01:56:29.223Z,101125.78
2023-05-09T01:57:32.624Z,101121.50
2023-05-09T01:58:36.447Z,101120.64
2023-05-09T01:59:41.424Z,101132.89
2023-05-09T02:00:44.979Z,101123.19
2023-05-09T02:01:47.986Z,101130.30
2023-05-09T02:02:52.297Z,101132.13
2023-05-09T02:03:55.974Z,101126.81
2023-05-09T02:04:58.388Z,101124.98
2023-05-09T02:06:02.718Z,101129.38
2023-05-09T02:07:05.925Z,101127.47
2023-05-09T02:08:08.422Z,101125.67
2023-05-09T02:09:11.211Z,101129.27
2023-05-09T02:10:15.809Z,101133.66
2023-05-09T02:11:18.694Z,101126.44
2023-05-09T02:12:24.524Z,101129.20
2023-05-09T02:13:26.914Z,101130.06
2023-05-09T02:14:30.190Z,101132.61
2023-05-09T02:15:32.754Z,101128.16
2023-05-09T02:16:36.226Z,101133.38
2023-05-09T02:17:38.574Z,101132.55
2023-05-09T02:18:54.482Z,101129.02
2023-05-09T02:19:57.194Z,101128.05
2023-05-09T02:21:00.292Z,101128.84
2023-05-09T02:22:03.364Z,101132.27
2023-05-09T02:23:07.158Z,101123.42
2023-05-09T02:24:09.235Z,101128.84
2023-05-09T02:25:13.041Z,101133.38
2023-05-09T02:26:15.651Z,101127.12
2023-05-09T02:27:18.620Z,101130.64
2023-05-09T02:28:22.754Z,101133.38
2023-05-09T02:29:28.592Z,101131.69
2023-05-09T02:30:34.515Z,101131.92
2023-05-09T02:32:48.693Z,101127.98
2023-05-09T02:33:52.290Z,101130.52
2023-05-09T02:34:55.407Z,101128.61
2023-05-09T02:35:57.618Z,101131.92
2023-05-09T02:36:59.992Z,101137.07
2023-05-09T02:38:03.236Z,101130.92
2023-05-09T02:39:05.431Z,101129.89
2023-05-09T02:40:09.594Z,101136.03
2023-05-09T02:42:26.519Z,101130.95
2023-05-09T02:43:28.711Z,101132.72
2023-05-09T02:44:30.803Z,101142.49
2023-05-09T02:45:33.106Z,101138.97
2023-05-09T02:46:35.650Z,101133.66
2023-05-09T02:47:38.788Z,101142.31
2023-05-09T02:48:41.145Z,101132.55
2023-05-09T02:49:43.254Z,101140.41
2023-05-09T02:50:45.508Z,101137.69
2023-05-09T02:51:47.708Z,101136.83
2023-05-09T02:52:49.894Z,101141.28
2023-05-09T02:53:52.660Z,101136.89
2023-05-09T02:54:55.451Z,101145.73
2023-05-09T02:55:58.094Z,101130.92
2023-05-09T02:57:00.377Z,101142.49
2023-05-09T02:58:13.596Z,101146.95
2023-05-09T02:59:08.863Z,101146.08
2023-05-09T03:00:19.011Z,101145.05
2023-05-09T03:01:21.298Z,101139.83
2023-05-09T03:02:23.694Z,101140.00
2023-05-09T03:03:27.068Z,101154.23
2023-05-09T03:04:29.511Z,101139.14
2023-05-09T03:05:31.502Z,101143.59
2023-05-09T03:06:47.330Z,101145.32
2023-05-09T03:07:49.862Z,101143.42
2023-05-09T03:08:52.064Z,101145.91
2023-05-09T03:09:56.150Z,101143.25
2023-05-09T03:10:58.546Z,101148.56
2023-05-09T03:12:01.061Z,101142.56
2023-05-09T03:13:03.245Z,101146.19
2023-05-09T03:14:06.029Z,101151.78
2023-05-09T03:15:09.551Z,101153.64
2023-05-09T03:16:14.101Z,101152.02
2023-05-09T03:17:16.678Z,101153.81
2023-05-09T03:18:19.609Z,101150.22
2023-05-09T03:19:22.357Z,101161.55
2023-05-09T03:20:25.837Z,101158.72
2023-05-09T03:21:28.271Z,101156.82
2023-05-09T03:22:31.365Z,101158.61
2023-05-09T03:23:35.824Z,101156.89
2023-05-09T03:24:38.465Z,101162.20
2023-05-09T03:25:40.827Z,101155.95
2023-05-09T03:26:43.325Z,101155.95
2023-05-09T03:27:46.080Z,101163.83
2023-05-09T03:28:50.403Z,101162.14
2023-05-09T03:29:52.602Z,101157.75
2023-05-09T03:30:56.180Z,101164.69
2023-05-09T03:31:59.839Z,101159.37
2023-05-09T03:33:02.279Z,101162.03
2023-05-09T03:34:05.229Z,101166.48
2023-05-09T03:35:08.206Z,101166.59
2023-05-09T03:36:11.171Z,101172.84
2023-05-09T03:37:15.348Z,101164.97
2023-05-09T03:38:18.319Z,101167.52
2023-05-09T03:39:20.485Z,101167.45
2023-05-09T03:40:24.397Z,101162.89
2023-05-09T03:41:28.635Z,101166.31
2023-05-09T03:42:32.918Z,101161.69
2023-05-09T03:43:36.264Z,101160.83
2023-05-09T03:44:38.461Z,101172.25
2023-05-09T03:45:40.765Z,101175.67
2023-05-09T03:46:44.767Z,101172.05
2023-05-09T03:47:47.570Z,101164.00
2023-05-09T03:48:50.685Z,101168.35
2023-05-09T03:49:52.796Z,101169.14
2023-05-09T03:50:56.525Z,101173.32
2023-05-09T03:52:00.643Z,101169.63
2023-05-09T03:53:03.756Z,101170.48
2023-05-09T03:54:07.206Z,101175.73
2023-05-09T03:55:09.987Z,101174.70
2023-05-09T03:57:28.834Z,101175.76
2023-05-09T03:58:31.672Z,101176.49
2023-05-09T03:59:34.985Z,101176.49
2023-05-09T04:00:38.432Z,101175.45
2023-05-09T04:01:42.528Z,101176.14
2023-05-09T04:02:44.968Z,101184.02
2023-05-09T04:03:49.450Z,101178.88
2023-05-09T04:04:52.545Z,101173.55
2023-05-09T04:05:55.596Z,101174.42
2023-05-09T04:07:00.194Z,101169.00
2023-05-09T04:08:05.094Z,101175.41
2023-05-09T04:09:07.581Z,101171.70
2023-05-09T04:10:11.699Z,101171.45
2023-05-09T04:11:14.560Z,101168.61
2023-05-09T04:12:21.737Z,101171.06
2023-05-09T04:13:26.513Z,101175.38
2023-05-09T04:14:29.635Z,101184.11
2023-05-09T04:15:31.870Z,101180.59
2023-05-09T04:16:34.086Z,101175.38
2023-05-09T04:17:36.454Z,101178.97
2023-05-09T04:18:39.431Z,101172.03
2023-05-09T04:19:41.771Z,101181.05
2023-05-09T04:20:45.281Z,101174.94
2023-05-09T04:21:49.658Z,101183.78
2023-05-09T04:22:52.337Z,101177.42
2023-05-09T04:23:54.985Z,101182.75
2023-05-09T04:24:58.984Z,101184.47
2023-05-09T04:26:01.779Z,101180.88
2023-05-09T04:27:04.826Z,101186.09
2023-05-09T04:28:07.315Z,101183.44
2023-05-09T04:29:10.694Z,101187.81
2023-05-09T04:30:15.536Z,101186.85
2023-05-09T04:32:27.188Z,101177.89
2023-05-09T04:33:29.708Z,101183.00
2023-05-09T04:34:34.171Z,101188.14
2023-05-09T04:35:38.365Z,101188.06
2023-05-09T04:36:41.393Z,101187.20
2023-05-09T04:37:43.693Z,101185.41
2023-05-09T04:38:46.269Z,101191.56
2023-05-09T04:39:50.199Z,101186.23
2023-05-09T04:40:54.404Z,101188.72
2023-05-09T04:41:57.190Z,101188.54
2023-05-09T04:42:59.567Z,101188.36
2023-05-09T04:44:03.881Z,101188.17
2023-05-09T04:45:07.474Z,101196.05
2023-05-09T04:46:10.823Z,101187.05
2023-05-09T04:47:13.152Z,101194.08
2023-05-09T04:48:15.185Z,101194.00
2023-05-09T04:49:17.400Z,101193.89
2023-05-09T04:50:19.688Z,101186.77
2023-05-09T04:51:21.971Z,101194.64
2023-05-09T04:52:24.136Z,101190.11
2023-05-09T04:53:26.314Z,101194.46
2023-05-09T04:54:30.744Z,101190.86
2023-05-09T04:55:32.953Z,101189.89
2023-05-09T04:56:36.679Z,101185.42
2023-05-09T04:57:38.767Z,101197.05
2023-05-09T04:58:41.445Z,101186.29
2023-05-09T04:59:45.405Z,101191.44
2023-05-09T05:00:50.236Z,101193.05
2023-05-09T05:01:53.752Z,101182.97
2023-05-09T05:02:57.315Z,101188.03
2023-05-09T05:04:01.326Z,101193.06
2023-05-09T05:05:11.960Z,101186.69
2023-05-09T05:06:13.080Z,101196.22
2023-05-09T05:07:16.374Z,101188.98
2023-05-09T05:08:20.491Z,101190.59
2023-05-09T05:09:23.749Z,101190.41
2023-05-09T05:10:26.684Z,101191.27
2023-05-09T05:11:30.900Z,101198.20
2023-05-09T05:12:33.291Z,101193.63
2023-05-09T05:14:46.653Z,101193.81
2023-05-09T05:15:50.785Z,101188.30
2023-05-09T05:16:55.573Z,101194.30
2023-05-09T05:17:58.337Z,101188.86
2023-05-09T05:20:12.457Z,101188.86
2023-05-09T05:21:16.473Z,101200.20
2023-05-09T05:22:19.739Z,101201.81
2023-05-09T05:23:22.506Z,101197.98
2023-05-09T05:24:26.763Z,101201.31
2023-05-09T05:26:40.011Z,101192.36
2023-05-09T05:27:42.181Z,101193.69
2023-05-09T05:28:45.949Z,101192.75
2023-05-09T05:29:49.153Z,101189.03
2023-05-09T05:30:51.435Z,101191.39
2023-05-09T05:31:53.818Z,101197.39
2023-05-09T05:32:56.508Z,101194.53
2023-05-09T05:33:58.741Z,101193.47
2023-05-09T05:36:12.761Z,101191.61
2023-05-09T05:37:16.110Z,101200.22
2023-05-09T05:38:18.352Z,101195.64
2023-05-09T05:39:22.240Z,101190.97
2023-05-09T05:40:25.141Z,101192.47
2023-05-09T05:41:27.823Z,101206.19
2023-05-09T05:43:46.190Z,101191.12
2023-05-09T05:44:51.157Z,101201.33
2023-05-09T05:45:55.525Z,101194.18
2023-05-09T05:46:59.199Z,101191.31
2023-05-09T05:48:01.875Z,101191.12
2023-05-09T05:49:05.104Z,101198.69
2023-05-09T05:50:09.863Z,101195.73
2023-05-09T05:51:12.039Z,101197.34
2023-05-09T05:53:34.883Z,101188.84
2023-05-09T05:54:36.860Z,101195.68
2023-05-09T05:55:40.060Z,101192.42
2023-05-09T05:56:42.816Z,101188.89
2023-05-09T05:57:45.549Z,101198.09
2023-05-09T06:00:07.025Z,101192.01
2023-05-09T06:01:10.986Z,101197.23
2023-05-09T06:02:14.753Z,101198.95
2023-05-09T06:03:17.197Z,101199.81
2023-05-09T06:04:21.602Z,101199.70
2023-05-09T06:05:24.731Z,101194.27
2023-05-09T06:06:27.852Z,101197.56
2023-05-09T06:08:40.367Z,101192.86
2023-05-09T06:09:43.028Z,101196.28
2023-05-09T06:10:45.452Z,101194.27
2023-05-09T06:11:47.850Z,101199.39
2023-05-09T06:12:50.023Z,101198.33
2023-05-09T06:13:53.706Z,101199.19
2023-05-09T06:14:55.741Z,101196.30
2023-05-09T06:16:07.819Z,101194.45
2023-05-09T06:17:03.248Z,101199.59
2023-05-09T06:18:05.912Z,101198.52
2023-05-09T06:19:09.405Z,101200.98
2023-05-09T06:20:12.144Z,101196.29
2023-05-09T06:21:14.344Z,101196.94
2023-05-09T06:22:16.589Z,101194.08
2023-05-09T06:23:18.788Z,101194.70
2023-05-09T06:24:34.557Z,101196.30
2023-05-09T06:25:24.774Z,101190.73
2023-05-09T06:26:27.871Z,101193.20
2023-05-09T06:27:34.388Z,101189.45
2023-05-09T06:28:40.029Z,101183.88
2023-05-09T06:30:57.850Z,101180.86
2023-05-09T06:32:00.021Z,101186.00
2023-05-09T06:33:02.190Z,101185.05
2023-05-09T06:34:05.003Z,101183.02
2023-05-09T06:35:08.267Z,101190.91
2023-05-09T06:36:11.931Z,101181.08
2023-05-09T06:37:13.992Z,101193.25
2023-05-09T06:38:15.955Z,101182.45
2023-05-09T06:39:18.000Z,101187.68
2023-05-09T06:40:21.038Z,101182.23
2023-05-09T06:41:25.903Z,101185.77
2023-05-09T06:42:30.159Z,101185.55
2023-05-09T06:43:34.398Z,101184.48
2023-05-09T06:44:36.616Z,101177.28
2023-05-09T06:45:38.691Z,101170.84
2023-05-09T06:46:45.936Z,101172.47
2023-05-09T06:47:50.655Z,101178.44
2023-05-09T06:48:52.898Z,101182.70
2023-05-09T06:51:04.477Z,101170.89
2023-05-09T06:52:06.453Z,101173.50
2023-05-09T06:53:08.562Z,101182.26
2023-05-09T06:54:11.408Z,101182.16
2023-05-09T06:55:14.819Z,101168.53
2023-05-09T06:56:19.536Z,101173.66
2023-05-09T06:57:21.513Z,101179.64
2023-05-09T06:58:23.973Z,101184.77
2023-05-09T06:59:26.440Z,101180.06
2023-05-09T07:00:29.202Z,101178.11
2023-05-09T07:01:33.566Z,101166.33
2023-05-09T07:02:36.164Z,101177.77
2023-05-09T07:03:38.743Z,101172.09
2023-05-09T07:04:41.616Z,101169.19
2023-05-09T07:05:43.976Z,101176.13
2023-05-09T07:06:46.122Z,101170.52
2023-05-09T07:07:48.644Z,101173.09
2023-05-09T07:08:50.697Z,101172.01
2023-05-09T07:10:07.308Z,101165.69
2023-05-09T07:11:00.256Z,101166.42
2023-05-09T07:12:02.456Z,101161.80
2023-05-09T07:13:08.755Z,101163.52
2023-05-09T07:14:13.145Z,101164.28
2023-05-09T07:15:22.781Z,101170.37
2023-05-09T07:16:20.955Z,101163.92
2023-05-09T07:17:25.615Z,101159.33
2023-05-09T07:18:28.105Z,101159.83
2023-05-09T07:19:32.238Z,101160.45
2023-05-09T07:20:34.603Z,101163.73
2023-05-09T07:21:38.489Z,101160.58
2023-05-09T07:22:45.004Z,101151.22
2023-05-09T07:23:47.213Z,101152.44
2023-05-09T07:24:49.629Z,101160.87
2023-05-09T07:25:56.937Z,101163.08
2023-05-09T07:27:05.704Z,101149.93
2023-05-09T07:28:14.863Z,101157.36
2023-05-09T07:29:17.406Z,101146.88
2023-05-09T07:30:19.700Z,101148.84
2023-05-09T07:31:28.023Z,101150.05
2023-05-09T07:32:33.762Z,101152.39
2023-05-09T07:33:41.687Z,101153.83
2023-05-09T07:34:43.783Z,101137.49
2023-05-09T07:35:51.033Z,101142.86
2023-05-09T07:36:59.194Z,101144.68
2023-05-09T07:38:03.322Z,101146.64
2023-05-09T07:39:09.377Z,101141.38
2023-05-09T07:40:13.823Z,101139.70
2023-05-09T07:41:23.495Z,101122.99
2023-05-09T07:43:36.999Z,101129.69
2023-05-09T07:44:39.146Z,101122.89
2023-05-09T07:45:48.644Z,101129.22
2023-05-09T07:46:55.148Z,101126.67
2023-05-09T07:47:58.848Z,101129.59
2023-05-09T07:49:08.537Z,101137.74
2023-05-09T07:50:11.239Z,101131.52
2023-05-09T07:51:13.818Z,101133.00
2023-05-09T07:52:16.093Z,101129.08
2023-05-09T07:53:18.311Z,101133.10
2023-05-09T07:54:23.342Z,101118.48
2023-05-09T07:55:28.131Z,101125.29
2023-05-09T07:56:33.416Z,101128.59
2023-05-09T07:57:38.923Z,101123.84
2023-05-09T07:58:41.779Z,101130.81
2023-05-09T07:59:43.741Z,101127.17
2023-05-09T08:00:46.037Z,101129.47
2023-05-09T08:01:56.399Z,101119.35
2023-05-09T08:02:59.474Z,101130.55
2023-05-09T08:04:04.855Z,101121.27
2023-05-09T08:05:09.346Z,101129.92
2023-05-09T08:06:16.291Z,101119.80
2023-05-09T08:07:19.892Z,101124.06
2023-05-09T08:08:25.604Z,101128.42
2023-05-09T08:09:29.601Z,101127.32
2023-05-09T08:10:34.320Z,101119.27
2023-05-09T08:11:36.386Z,101121.84
2023-05-09T08:12:39.725Z,101132.44
2023-05-09T08:13:42.409Z,101126.11
2023-05-09T08:14:44.973Z,101128.79
2023-05-09T08:15:49.565Z,101120.73
2023-05-09T08:16:54.701Z,101125.14
2023-05-09T08:17:58.495Z,101129.51
2023-05-09T08:19:00.713Z,101125.14
2023-05-09T08:20:05.116Z,101127.93
2023-05-09T08:21:09.777Z,101123.56
2023-05-09T08:22:21.008Z,101125.39
2023-05-09T08:23:23.431Z,101120.88
2023-05-09T08:24:29.474Z,101111.97
2023-05-09T08:25:31.792Z,101117.45
2023-05-09T08:26:35.224Z,101125.50
2023-05-09T08:27:38.807Z,101101.48
2023-05-09T08:28:43.620Z,101117.45
2023-05-09T08:29:46.093Z,101120.12
2023-05-09T08:30:49.419Z,101122.81
2023-05-09T08:31:51.465Z,101113.90
2023-05-09T08:34:04.731Z,101111.94
2023-05-09T08:36:18.398Z,101108.39
2023-05-09T08:37:21.009Z,101129.03
2023-05-09T08:38:23.182Z,101111.97
2023-05-09T08:39:25.232Z,101109.39
2023-05-09T08:40:28.619Z,101107.70
2023-05-09T08:41:33.125Z,101122.09
2023-05-09T08:42:36.937Z,101115.01
2023-05-09T08:43:40.784Z,101108.92
2023-05-09T08:44:42.818Z,101108.92
2023-05-09T08:47:03.104Z,101106.45
2023-05-09T08:48:06.825Z,101108.59
2023-05-09T08:49:09.455Z,101109.56
2023-05-09T08:50:15.139Z,101110.67
2023-05-09T08:51:20.770Z,101108.09
2023-05-09T08:52:22.944Z,101105.55
2023-05-09T08:53:25.410Z,101109.20
2023-05-09T08:54:29.578Z,101117.25
2023-05-09T08:55:32.471Z,101110.91
2023-05-09T08:56:35.332Z,101109.81
2023-05-09T08:57:39.104Z,101110.42
2023-05-09T08:58:41.520Z,101110.17
2023-05-09T08:59:47.100Z,101117.69
2023-05-09T09:00:56.990Z,101106.45
2023-05-09T09:02:00.868Z,101099.73
2023-05-09T09:03:03.732Z,101090.92
2023-05-09T09:04:07.744Z,101097.47
2023-05-09T09:05:34.021Z,101094.13
2023-05-09T09:06:29.387Z,101097.77
2023-05-09T09:07:39.442Z,101101.52
2023-05-09T09:08:41.893Z,101098.02
2023-05-09T09:09:49.276Z,101084.82
2023-05-09T09:10:54.444Z,101096.77
2023-05-09T09:12:00.139Z,101085.49
2023-05-09T09:13:05.129Z,101091.17
2023-05-09T09:15:59.741Z,101084.52
2023-05-09T09:17:05.056Z,101087.73
2023-05-09T09:19:31.863Z,101075.82
2023-05-09T09:21:54.903Z,101064.25
2023-05-09T09:23:00.952Z,101076.80
2023-05-09T09:24:06.326Z,101074.70
2023-05-09T09:25:12.777Z,101068.45
2023-05-09T09:26:16.888Z,101074.70
2023-05-09T09:27:19.574Z,101073.84
2023-05-09T09:29:36.726Z,101066.09
2023-05-09T09:30:48.749Z,101071.13
2023-05-09T09:31:55.695Z,101068.55
2023-05-09T09:33:01.352Z,101068.82
2023-05-09T09:34:06.887Z,101070.95
2023-05-09T09:35:17.372Z,101072.90
2023-05-09T09:37:40.926Z,101067.97
2023-05-09T09:38:46.830Z,101079.22
2023-05-09T09:41:09.277Z,101068.35
2023-05-09T09:42:15.402Z,101080.56
2023-05-09T09:43:28.728Z,101087.33
2023-05-09T09:44:36.015Z,101076.84
2023-05-09T09:45:41.666Z,101079.07
2023-05-09T09:46:48.842Z,101076.64
2023-05-09T09:47:51.191Z,101071.61
2023-05-09T09:48:55.910Z,101076.42
2023-05-09T09:49:58.001Z,101081.08
2023-05-09T09:51:12.181Z,101076.94
2023-05-09T09:52:17.956Z,101082.56
2023-05-09T09:53:20.667Z,101081.97
2023-05-09T09:55:45.912Z,101074.52
2023-05-09T09:56:55.581Z,101070.45
2023-05-09T09:57:58.388Z,101075.23
2023-05-09T09:59:20.596Z,101079.88
2023-05-09T10:00:28.498Z,101078.17
2023-05-09T10:01:33.381Z,101074.63
2023-05-09T10:04:16.222Z,101071.58
2023-05-09T10:05:23.834Z,101070.87
2023-05-09T10:08:07.475Z,101070.97
2023-05-09T10:09:11.168Z,101076.50
2023-05-09T10:10:13.811Z,101074.81
2023-05-09T10:11:16.892Z,101076.64
2023-05-09T10:12:19.473Z,101073.10
2023-05-09T10:13:21.635Z,101071.42
2023-05-09T10:14:26.724Z,101083.12
2023-05-09T10:15:45.059Z,101074.10
2023-05-09T10:16:44.138Z,101069.70
2023-05-09T10:17:46.198Z,101075.78
2023-05-09T10:18:48.553Z,101073.10
2023-05-09T10:19:51.378Z,101072.38
2023-05-09T10:20:58.793Z,101067.98
2023-05-09T10:22:05.420Z,101074.21
2023-05-09T10:23:08.257Z,101072.24
2023-05-09T10:24:12.283Z,101065.91
2023-05-09T10:25:20.298Z,101075.67
2023-05-09T10:26:23.916Z,101065.77
2023-05-09T10:27:27.557Z,101071.02
2023-05-09T10:28:32.335Z,101063.83
2023-05-09T10:29:37.412Z,101065.51
2023-05-09T10:30:56.214Z,101063.68
2023-05-09T10:33:16.098Z,101065.09
2023-05-09T10:34:18.769Z,101064.28
2023-05-09T10:35:24.471Z,101065.00
2023-05-09T10:36:36.754Z,101062.20
2023-05-09T10:37:39.746Z,101059.12
2023-05-09T10:40:06.040Z,101057.48
2023-05-09T10:41:10.528Z,101063.89
2023-05-09T10:42:14.680Z,101062.91
2023-05-09T10:43:17.679Z,101052.89
2023-05-09T10:44:24.762Z,101053.75
2023-05-09T10:45:27.384Z,101050.91
2023-05-09T10:46:33.123Z,101054.61
2023-05-09T10:47:35.678Z,101051.06
2023-05-09T10:49:49.228Z,101058.09
2023-05-09T10:50:51.715Z,101051.17
2023-05-09T10:51:53.831Z,101052.03
2023-05-09T10:53:07.181Z,101052.89
2023-05-09T10:55:57.626Z,101044.52
2023-05-09T10:57:01.362Z,101052.62
2023-05-09T10:59:57.800Z,101046.94
2023-05-09T11:01:01.540Z,101051.66
2023-05-09T11:02:05.867Z,101048.23
2023-05-09T11:03:15.935Z,101044.83
2023-05-09T11:04:20.299Z,101037.89
2023-05-09T11:05:28.553Z,101039.87
2023-05-09T11:06:46.806Z,101047.20
2023-05-09T11:09:24.268Z,101038.23
2023-05-09T11:10:26.493Z,101039.27
2023-05-09T11:11:32.928Z,101039.87
2023-05-09T11:12:58.251Z,101039.72
2023-05-09T11:14:15.269Z,101041.17
2023-05-09T11:15:18.902Z,101038.23
2023-05-09T11:16:25.627Z,101033.58
2023-05-09T11:17:31.524Z,101045.17
2023-05-09T11:18:33.683Z,101039.80
2023-05-09T11:20:51.988Z,101036.31
2023-05-09T11:22:01.950Z,101036.52
2023-05-09T11:23:04.574Z,101042.86
2023-05-09T11:24:17.507Z,101034.09
2023-05-09T11:25:25.323Z,101039.46
2023-05-09T11:26:29.566Z,101025.33
2023-05-09T11:28:54.495Z,101023.69
2023-05-09T11:29:58.777Z,101033.64
2023-05-09T11:31:12.878Z,101028.27
2023-05-09T11:32:16.546Z,101024.47
2023-05-09T11:33:27.344Z,101022.49
2023-05-09T11:34:30.189Z,101027.86
2023-05-09T11:35:33.363Z,101021.78
2023-05-09T11:36:36.830Z,101023.61
2023-05-09T11:37:47.670Z,101019.24
2023-05-09T11:39:08.055Z,101025.44
2023-05-09T11:40:12.622Z,101021.07
2023-05-09T11:41:15.580Z,101020.21
2023-05-09T11:42:18.209Z,101015.70
2023-05-09T11:44:31.414Z,101011.23
2023-05-09T11:45:34.497Z,101012.41
2023-05-09T11:46:37.485Z,101018.75
2023-05-09T11:47:40.181Z,101011.70
2023-05-09T11:48:42.411Z,101011.56
2023-05-09T11:49:44.653Z,101008.88
2023-05-09T11:50:47.228Z,101009.02
2023-05-09T11:51:49.806Z,101016.22
2023-05-09T11:52:53.170Z,101009.13
2023-05-09T11:53:55.435Z,101013.67
2023-05-09T11:54:59.046Z,101020.73
2023-05-09T11:56:04.303Z,101011.81
2023-05-09T11:57:06.911Z,101012.67
2023-05-09T11:58:09.775Z,101010.84
2023-05-09T11:59:12.026Z,101017.07
2023-05-09T12:00:21.891Z,101012.56
2023-05-09T12:01:24.406Z,101016.07
2023-05-09T12:02:27.137Z,101013.39
2023-05-09T12:03:33.170Z,101007.05
2023-05-09T12:04:35.829Z,101006.19
2023-05-09T12:05:38.475Z,101006.08
2023-05-09T12:06:45.589Z,101003.39
2023-05-09T12:07:48.413Z,101000.70
2023-05-09T12:08:50.609Z,101004.36
2023-05-09T12:09:52.742Z,100999.96
2023-05-09T12:10:58.945Z,101001.83
2023-05-09T12:12:01.365Z,100999.14
2023-05-09T12:13:04.678Z,101008.16
2023-05-09T12:14:07.057Z,101002.80
2023-05-09T12:15:10.386Z,101004.62
2023-05-09T12:17:22.450Z,100989.82
2023-05-09T12:18:24.290Z,100990.03
2023-05-09T12:19:27.806Z,100991.97
2023-05-09T12:21:59.331Z,100985.97
2023-05-09T12:23:02.852Z,100989.69
2023-05-09T12:24:05.535Z,100987.00
2023-05-09T12:25:09.573Z,100983.46
2023-05-09T12:26:12.371Z,100975.30
2023-05-09T12:27:14.830Z,100978.95
2023-05-09T12:29:38.560Z,100976.20
2023-05-09T12:30:40.847Z,100981.63
2023-05-09T12:31:43.315Z,100982.23
2023-05-09T12:32:47.937Z,100968.67
2023-05-09T12:33:50.808Z,100977.58
2023-05-09T12:34:53.413Z,100971.09
2023-05-09T12:36:08.006Z,100968.30
2023-05-09T12:37:18.228Z,100967.30
2023-05-09T12:38:21.892Z,100967.03
2023-05-09T12:39:24.219Z,100974.12
2023-05-09T12:40:28.069Z,100965.92
2023-05-09T12:41:39.079Z,100966.92
2023-05-09T12:42:35.765Z,100976.80
2023-05-09T12:43:38.339Z,100965.20
2023-05-09T12:44:40.881Z,100967.03
2023-05-09T12:45:42.733Z,100976.09
2023-05-09T12:48:10.666Z,100967.48
2023-05-09T12:49:23.092Z,100972.20
2023-05-09T12:50:33.096Z,100966.98
2023-05-09T12:51:35.348Z,100960.77
2023-05-09T12:52:50.560Z,100962.73
2023-05-09T12:53:45.501Z,100961.02
2023-05-09T12:54:47.579Z,100969.22
2023-05-09T12:55:49.768Z,100962.13
2023-05-09T12:56:54.789Z,100963.11
2023-05-09T12:57:58.941Z,100955.20
2023-05-09T12:59:02.075Z,100961.53
2023-05-09T13:00:07.681Z,100953.73
2023-05-09T13:01:10.826Z,100962.91
2023-05-09T13:02:13.701Z,100954.00
2023-05-09T13:04:32.905Z,100960.56
2023-05-09T13:06:53.012Z,100957.28
2023-05-09T13:07:57.120Z,100960.17
2023-05-09T13:09:02.538Z,100963.81
2023-05-09T13:10:14.131Z,100961.13
2023-05-09T13:11:17.166Z,100955.77
2023-05-09T13:12:21.163Z,100954.05
2023-05-09T13:13:27.034Z,100959.42
2023-05-09T13:14:30.336Z,100956.73
2023-05-09T13:16:49.840Z,100953.43
2023-05-09T13:17:53.617Z,100958.10
2023-05-09T13:18:59.125Z,100960.78
2023-05-09T13:20:05.105Z,100956.42
2023-05-09T13:21:07.437Z,100952.88
2023-05-09T13:22:12.213Z,100958.25